El Reno, OK (73036)

7:14 PM CDT on October 21, 2014 (GMT -0500)
E. Mills and S. Rock Island Ave | Change Station
CLOSE
Current Station
Personal Weather Station
Location: El Reno, OK
Elevation: 1385 ft
Nearby Weather Stations

Elev 1385 ft 35.52 °N, 97.95 °W | Updated 9 minutes ago

Clear
Clear
74.5 °F
Feels Like 77 °F
N
4.3
Wind Variable Wind from NNW

Today
High -- | Low -- °F
--% Chance of Precip.
Yesterday
High -- | Low -- °F
Precip. -- in
7:43 AM 6:48 PM
Waning Crescent, 4% visible
Pressure 30.03 in
Visibility 10.0 miles
Clouds Clear
Heat Index 77 °F
Dew Point 58 °F
Humidity 57%
Rainfall 0.00 in
Snow Depth Not available.
UV 0 out of 12
Pollen 5.60 out of 12
Ozone Good
PM2.5 Moderate
Flu Activity No Activity
METAR KRQO 212355Z AUTO 17007KT 10SM CLR 21/13 A3003 RMK AO2

More Conditions Fewer Conditions

Pressure 30.03 in
Visibility 10.0 miles
Clouds Clear
Heat Index 77 °F
Dew Point 58 °F
Humidity 57%
Rainfall 0.00 in
Snow Depth Not available.
UV 0 out of 12
Pollen 5.60 out of 12
Ozone Good
PM2.5 Moderate
Flu Activity No Activity
METAR KRQO 212355Z AUTO 17007KT 10SM CLR 21/13 A3003 RMK AO2

More Conditions Fewer Conditions

10-Day Weather Forecast

Almanac

Astronomy

Oct. 21, 2014 Rise Set
Actual Time 7:43 AM CDT 6:48 PM CDT
Civil Twilight 7:17 AM CDT 7:14 PM CDT
Nautical Twilight 6:47 AM CDT 7:44 PM CDT
Astronomical Twilight 6:18 AM CDT 8:13 PM CDT
Moon 5:33 AM CDT (10/21) 5:40 PM CDT (10/21)
Length of Visible Light 11h 57m
Length of Day
11h 05m
Tomorrow will be 2m 5s shorter.
Waning Crescent, 4% of the Moon is Illuminated
Today
Waning Crescent
Oct 23
New
Oct 30
First Quarter
Nov 6
Full
Nov 14
Last Quarter

Today's Extremes

State Highs State Lows

Community

WunderPhotos

Upload Photos

1,763,826 photos uploaded!

Nearby

Air Quality

  Air Quality AQ Index Pollutant
Yesterday Good
PM2.5
Yesterday Good
OZONE
Current Moderate
PM2.5
Current Good
OZONE
Tuesday Moderate
PM2.5
Tuesday Good
OZONE
Wednesday Moderate
PM2.5
Wednesday Moderate
OZONE
Thursday Moderate
PM2.5
Thursday Moderate
OZONE
Friday Moderate
OZONE
Friday Good
PM2.5
Saturday Moderate
OZONE
Saturday Good
PM2.5

Snow Depth

Station Depth Elevation
No new snow has been reported.

Earthquake Activity

City Distance Mag. Time & Date
Mooreland, Oklahoma 90 miles 2.6 11:34 AM CDT
2014-10-21
Mooreland, Oklahoma 90 miles 2.7 11:18 AM CDT
2014-10-21
Cherokee, Oklahoma 84 miles 2.5 8:27 AM CDT
2014-10-21
Anthony, Kansas 104 miles 3.0 6:55 AM CDT
2014-10-21
Minimum magnitude displayed is 2.5.

Coastal Water Temperatures

Place Temperature
No Stations Reporting

Nearby Weather Stations